Flight Track Log - Related Links

Times and Time Zones

All times are in EDT time to prevent confusion due to time zone crossing. See the SWA3725 flight status page for this flight to view local times or setup timezone preferences in your user account.

Time Position Orientation Groundspeed Altitude Reporting Facility
EDT Latitude Longitude Course Direction KTS MPH feet Rate Location/Type
Sat 02:29:33 PM 30.0425 -90.2369 11° North 172 198 2,000  Level Houston Center
Sat 02:29:58 PM 30.0578 -90.2331 12° North 180 207 2,600 2,100 Climbing Houston Center
Sat 02:30:33 PM 30.1028 -90.2247 North 243 280 4,100 2,032 Climbing Houston Center
Sat 02:31:00 PM 30.1236 -90.2164 19° North 215 247 4,700 2,951 Climbing Houston Center
Sat 02:31:34 PM 30.1772 -90.2000 15° North 294 338 7,100 3,387 Climbing Houston Center
Sat 02:32:02 PM 30.2008 -90.1950 10° North 255 293 8,200 3,200 Climbing Houston Center
Sat 02:33:04 PM 30.2919 -90.2431 336° Northwest 295 339 11,900 3,339 Climbing Houston Center
Sat 02:34:06 PM 30.3797 -90.2903 335° Northwest 336 387 15,100 3,145 Climbing Houston Center
Sat 02:35:08 PM 30.4753 -90.3378 337° Northwest 364 419 18,400 3,072 Climbing Houston Center
Sat 02:36:11 PM 30.5706 -90.3822 338° Northwest 369 425 21,500 2,544 Climbing Houston Center
Sat 02:37:13 PM 30.6703 -90.4289 338° Northwest 379 436 23,700 2,081 Climbing Houston Center
Sat 02:38:15 PM 30.7786 -90.4722 341° North 404 465 25,800 2,274 Climbing Houston Center
Sat 02:39:17 PM 30.9114 -90.5283 340° North 417 480 28,400 2,177 Climbing Houston Center
Sat 02:40:19 PM 31.0244 -90.5756 340° North 426 490 30,300 2,032 Climbing Houston Center
Sat 02:41:21 PM 31.1364 -90.6228 340° North 427 491 32,600 1,968 Climbing Houston Center
Sat 02:42:24 PM 31.2461 -90.6683 340° North 420 483 34,400 1,824 Climbing Houston Center
Sat 02:43:26 PM 31.3531 -90.7133 340° North 416 479 36,400 1,742 Climbing Houston Center
Sat 02:44:28 PM 31.4550 -90.7586 339° North 397 457 38,000 774 Climbing Houston Center
Sat 02:45:30 PM 31.5767 -90.8092 341° North 389 448 38,000  Level Houston Center
Sat 02:46:32 PM 31.6778 -90.8508 341° North 386 444 38,000  Level Houston Center
Sat 02:47:34 PM 31.7789 -90.8919 341° North 385 443 38,000  Level Houston Center
Sat 02:48:36 PM 31.8811 -90.9347 340° North 385 443 38,000  Level Houston Center
Sat 02:49:27 PM 31.9731 -90.9714 341° North 385 443 38,000 106 Level Memphis Center
Sat 02:50:29 PM 32.0728 -91.0131 341° North 384 442 38,200 629 Climbing Memphis Center
Sat 02:51:31 PM 32.1747 -91.0539 341° North 384 442 39,300 871 Climbing Memphis Center
Sat 02:52:33 PM 32.2769 -91.0967 341° North 386 444 40,000 339 Climbing Memphis Center
Sat 02:53:35 PM 32.3781 -91.1375 341° North 386 444 40,000  Level Memphis Center
Sat 02:54:37 PM 32.4981 -91.1886 340° North 386 444 40,000  Level Memphis Center
Sat 02:55:39 PM 32.5978 -91.2297 341° North 385 443 40,000  Level Memphis Center
Sat 02:56:40 PM 32.6958 -91.2711 340° North 379 436 40,000  Level Memphis Center
Sat 02:57:42 PM 32.7947 -91.3114 341° North 378 435 40,000  Level Memphis Center
Sat 02:58:44 PM 32.8931 -91.3525 341° North 378 435 40,000  Level Memphis Center
Sat 02:59:46 PM 32.9900 -91.3939 340° North 377 434 40,000  Level Memphis Center
Sat 03:00:48 PM 33.1061 -91.4419 341° North 373 429 40,000  Level Memphis Center
Sat 03:01:50 PM 33.2028 -91.4842 340° North 373 429 40,000  Level Memphis Center
Sat 03:02:52 PM 33.2994 -91.5244 341° North 372 428 40,000  Level Memphis Center
Sat 03:03:54 PM 33.3978 -91.5667 340° North 372 428 40,000  Level Memphis Center
Sat 03:04:56 PM 33.4964 -91.6069 341° North 373 429 40,000  Level Memphis Center
Sat 03:05:58 PM 33.5939 -91.6494 340° North 373 429 40,000  Level Memphis Center
Sat 03:07:00 PM 33.7119 -91.6992 341° North 373 429 40,000  Level Memphis Center
Sat 03:08:02 PM 33.8050 -91.7394 340° North 374 430 40,000  Level Memphis Center
Sat 03:09:04 PM 33.9061 -91.7819 341° North 379 436 40,000  Level Memphis Center
Sat 03:10:06 PM 34.0044 -91.8250 340° North 379 436 40,000  Level Memphis Center
Sat 03:11:08 PM 34.1108 -91.8711 340° North 379 436 40,000  Level Memphis Center
Sat 03:12:10 PM 34.2092 -91.9142 340° North 379 436 40,000  Level Memphis Center
Sat 03:13:12 PM 34.3081 -91.9569 340° North 378 435 40,000  Level Memphis Center
Sat 03:14:15 PM 34.4267 -92.0078 341° North 378 435 40,000  Level Memphis Center
Sat 03:15:16 PM 34.5239 -92.0506 340° North 378 435 40,000  Level Memphis Center
Sat 03:16:18 PM 34.6239 -92.0942 340° North 378 435 40,000  Level Memphis Center
Sat 03:17:20 PM 34.7214 -92.1369 340° North 378 435 40,000  Level Memphis Center
Sat 03:18:22 PM 34.8208 -92.1806 340° North 378 435 40,000  Level Memphis Center
Sat 03:19:24 PM 34.9392 -92.2322 340° North 378 435 40,000  Level Memphis Center
Sat 03:20:26 PM 35.0375 -92.2753 340° North 378 435 40,000  Level Memphis Center
Sat 03:21:28 PM 35.1350 -92.3200 339° North 378 435 40,000  Level Memphis Center
Sat 03:22:30 PM 35.2333 -92.3628 340° North 377 434 40,000  Level Memphis Center
Sat 03:23:32 PM 35.3308 -92.4064 340° North 377 434 40,000  Level Memphis Center
Sat 03:24:34 PM 35.4478 -92.4594 340° North 377 434 40,000  Level Memphis Center
Sat 03:25:36 PM 35.5461 -92.5033 340° North 377 434 40,000  Level Memphis Center
Sat 03:26:38 PM 35.6450 -92.5458 341° North 377 434 40,000  Level Memphis Center
Sat 03:27:40 PM 35.7428 -92.5906 340° North 377 434 40,000  Level Memphis Center
Sat 03:28:42 PM 35.8408 -92.6353 340° North 377 434 40,000  Level Memphis Center
Sat 03:29:44 PM 35.9583 -92.6869 340° North 377 434 40,000  Level Memphis Center
Sat 03:30:46 PM 36.0569 -92.7322 340° North 377 434 40,000  Level Memphis Center
Sat 03:31:49 PM 36.1558 -92.7772 340° North 377 434 40,000  Level Memphis Center
Sat 03:32:51 PM 36.2564 -92.8239 339° North 383 441 40,000  Level Memphis Center
Sat 03:33:53 PM 36.3583 -92.8703 340° North 385 443 40,000  Level Memphis Center
Sat 03:34:55 PM 36.4717 -92.9228 340° North 388 447 40,000  Level Memphis Center
Sat 03:35:57 PM 36.5750 -92.9697 340° North 390 449 40,000  Level Memphis Center
Sat 03:36:59 PM 36.6786 -93.0189 339° North 391 450 40,000  Level Memphis Center
Sat 03:38:01 PM 36.7856 -93.0678 340° North 400 460 40,000  Level Memphis Center
Sat 03:39:10 PM 36.9158 -93.1286 340° North 403 464 40,000  Level Kansas City Center
Sat 03:40:12 PM 37.0225 -93.1789 339° North 403 464 40,000  Level Kansas City Center
Sat 03:41:14 PM 37.1286 -93.2283 340° North 404 465 40,000  Level Kansas City Center
Sat 03:42:15 PM 37.2353 -93.2789 339° North 404 465 40,000  Level Kansas City Center
Sat 03:43:17 PM 37.3406 -93.3269 340° North 404 465 40,000 -435 Level Kansas City Center
Sat 03:44:19 PM 37.4653 -93.3939 337° Northwest 403 464 39,100 -871 Descending Kansas City Center
Sat 03:45:21 PM 37.5700 -93.4528 336° Northwest 403 464 38,200 -927 Descending Kansas City Center
Sat 03:46:22 PM 37.6758 -93.5114 336° Northwest 408 470 37,200 -927 Descending Kansas City Center
Sat 03:47:24 PM 37.7831 -93.5714 336° Northwest 412 474 36,300 -919 Descending Kansas City Center
Sat 03:48:26 PM 37.8869 -93.6300 336° Northwest 412 474 35,300 -919 Descending Kansas City Center
Sat 03:49:28 PM 37.9922 -93.6897 336° Northwest 411 473 34,400 -1,171 Descending Kansas City Center
Sat 03:50:29 PM 38.0989 -93.7511 336° Northwest 413 475 32,900 -1,854 Descending Kansas City Center
Sat 03:51:31 PM 38.2067 -93.8119 336° Northwest 417 480 30,600 -2,323 Descending Kansas City Center
Sat 03:52:33 PM 38.3144 -93.8711 337° Northwest 420 483 28,100 -2,565 Descending Kansas City Center
Sat 03:53:35 PM 38.4367 -93.9411 336° Northwest 406 467 25,300 -2,341 Descending Kansas City Center
Sat 03:54:36 PM 38.5256 -93.9897 337° Northwest 394 453 23,300 -2,098 Descending Kansas City Center
Sat 03:55:38 PM 38.6286 -94.0497 336° Northwest 369 425 21,000 -2,032 Descending Kansas City Center
Sat 03:56:40 PM 38.7094 -94.1072 331° Northwest 353 406 19,100 -1,902 Descending Kansas City Center
Sat 03:57:41 PM 38.7850 -94.1914 319° Northwest 326 375 17,100 -1,951 Descending Kansas City Center
Sat 03:58:43 PM 38.8497 -94.2603 320° Northwest 319 367 15,100 -1,839 Descending Kansas City Center
Sat 03:59:45 PM 38.9108 -94.3283 319° Northwest 308 354 13,300 -1,500 Descending Kansas City Center
Sat 04:00:47 PM 38.9817 -94.4058 320° Northwest 299 344 12,000 -634 Descending Kansas City Center
Sat 04:01:48 PM 39.0394 -94.4669 321° Northwest 284 327 12,000 -293 Level Kansas City Center
Sat 04:02:50 PM 39.1031 -94.5372 319° Northwest 275 316 11,400 -629 Descending Kansas City Center
Sat 04:03:52 PM 39.1567 -94.5956 320° Northwest 265 305 10,700 -823 Descending Kansas City Center
Sat 04:04:54 PM 39.2200 -94.6225 342° North 240 276 9,700 -1,065 Descending Kansas City Center
Sat 04:05:56 PM 39.2797 -94.6003 16° North 235 270 8,500 -1,951 Descending Kansas City Center
Sat 04:06:57 PM 39.3469 -94.5794 13° North 225 259 5,700 -2,000 Descending Kansas City Center
Sat 04:07:59 PM 39.3886 -94.6022 337° Northwest 204 235 4,400 -1,548 Descending Kansas City Center
Sat 04:09:01 PM 39.3717 -94.6692 252° West 174 200 2,500 -1,306 Descending Kansas City Center
Sat 04:10:03 PM 39.3403 -94.6911 208° Southwest 139 160 1,700 -732 Descending Kansas City Center
Sat 04:11:04 PM 39.3017 -94.7033 194° South 136 157 1,000 -689 Descending Kansas City Center

Login

Don't have an account? Register now (free) for customized features, flight alerts, and more!